createdAt,value
2018-01-27T00:00:53.037Z,14.77
2018-01-27T00:03:20.496Z,18.00
2018-01-27T00:05:47.948Z,16.93
2018-01-27T00:08:15.405Z,17.10
2018-01-27T00:10:42.857Z,16.20
2018-01-27T00:13:10.317Z,15.70
2018-01-27T00:15:37.789Z,15.90
2018-01-27T00:18:05.249Z,16.53
2018-01-27T00:20:32.705Z,15.83
2018-01-27T00:23:00.160Z,17.00
2018-01-27T00:25:27.613Z,17.40
2018-01-27T00:27:55.069Z,16.27
2018-01-27T00:30:22.521Z,16.00
2018-01-27T00:32:49.977Z,17.63
2018-01-27T00:35:17.429Z,16.57
2018-01-27T00:37:44.884Z,16.83
2018-01-27T00:40:12.336Z,17.53
2018-01-27T00:42:39.796Z,19.30
2018-01-27T00:45:07.247Z,21.13
2018-01-27T00:47:34.701Z,19.90
2018-01-27T00:50:02.153Z,22.33
2018-01-27T00:52:29.618Z,20.70
2018-01-27T00:54:57.074Z,21.13
2018-01-27T00:57:25.297Z,23.53
2018-01-27T00:59:53.513Z,22.67
2018-01-27T01:02:20.968Z,20.83
2018-01-27T01:04:48.429Z,20.73
2018-01-27T01:07:15.883Z,21.40
2018-01-27T01:09:43.332Z,22.90
2018-01-27T01:12:10.804Z,21.60
2018-01-27T01:14:38.249Z,21.87
2018-01-27T01:17:05.697Z,19.63
2018-01-27T01:19:33.153Z,22.63
2018-01-27T01:22:00.604Z,23.37
2018-01-27T01:24:28.070Z,22.67
2018-01-27T01:26:55.524Z,21.87
2018-01-27T01:29:22.985Z,21.60
2018-01-27T01:31:50.441Z,23.57
2018-01-27T01:34:17.901Z,22.57
2018-01-27T01:36:45.353Z,22.60
2018-01-27T01:39:12.817Z,23.33
2018-01-27T01:41:40.264Z,24.03
2018-01-27T01:44:13.475Z,24.77
2018-01-27T01:46:40.921Z,24.90
2018-01-27T01:49:20.149Z,23.10
2018-01-27T01:51:47.601Z,25.70
2018-01-27T01:54:15.060Z,24.30
2018-01-27T01:56:42.511Z,26.27
2018-01-27T01:59:09.964Z,30.53
2018-01-27T02:01:37.425Z,29.50
2018-01-27T02:04:04.880Z,26.90
2018-01-27T02:06:32.338Z,33.97
2018-01-27T02:08:59.792Z,26.27
2018-01-27T02:11:27.242Z,31.10
2018-01-27T02:13:54.705Z,29.37
2018-01-27T02:16:22.160Z,33.53
2018-01-27T02:18:49.617Z,28.20
2018-01-27T02:21:17.077Z,30.40
2018-01-27T02:23:44.532Z,30.97
2018-01-27T02:26:11.992Z,33.23
2018-01-27T02:28:39.445Z,30.53
2018-01-27T02:31:06.901Z,30.57
2018-01-27T02:33:34.359Z,30.90
2018-01-27T02:36:01.812Z,28.70
2018-01-27T02:38:29.262Z,31.20
2018-01-27T02:40:56.722Z,28.90
2018-01-27T02:43:24.180Z,28.93
2018-01-27T02:45:51.660Z,25.87
2018-01-27T02:48:19.101Z,26.57
2018-01-27T02:50:46.563Z,26.17
2018-01-27T02:53:14.017Z,27.97
2018-01-27T02:55:41.472Z,26.40
2018-01-27T02:58:08.942Z,27.27
2018-01-27T03:00:36.390Z,27.63
2018-01-27T03:03:03.841Z,28.30
2018-01-27T03:05:31.298Z,29.47
2018-01-27T03:07:58.749Z,25.50
2018-01-27T03:10:26.210Z,29.17
2018-01-27T03:12:53.660Z,31.40
2018-01-27T03:15:21.119Z,32.17
2018-01-27T03:17:48.569Z,29.83
2018-01-27T03:20:16.037Z,28.83
2018-01-27T03:22:43.481Z,29.90
2018-01-27T03:25:10.936Z,28.43
2018-01-27T03:27:38.385Z,30.00
2018-01-27T03:30:05.844Z,28.67
2018-01-27T03:32:33.289Z,26.10
2018-01-27T03:35:00.750Z,26.90
2018-01-27T03:37:28.206Z,29.43
2018-01-27T03:39:55.668Z,27.37
2018-01-27T03:42:23.121Z,22.60
2018-01-27T03:44:50.573Z,26.40
2018-01-27T03:47:18.036Z,28.00
2018-01-27T03:49:45.484Z,23.30
2018-01-27T03:52:13.713Z,24.00
2018-01-27T03:54:41.168Z,21.90
2018-01-27T03:57:08.644Z,24.23
2018-01-27T03:59:36.093Z,24.47
2018-01-27T04:02:03.552Z,24.63
2018-01-27T04:04:31.001Z,24.73
2018-01-27T04:06:58.452Z,23.90
2018-01-27T04:09:26.880Z,22.47
2018-01-27T04:11:54.400Z,24.03
2018-01-27T04:14:21.857Z,24.00
2018-01-27T04:16:49.313Z,25.27
2018-01-27T04:19:16.844Z,22.60
2018-01-27T04:21:44.294Z,25.37
2018-01-27T04:24:11.760Z,24.57
2018-01-27T04:26:39.216Z,25.53
2018-01-27T04:29:06.668Z,22.93
2018-01-27T04:31:34.133Z,24.30
2018-01-27T04:34:01.609Z,26.00
2018-01-27T04:36:29.069Z,25.13
2018-01-27T04:38:56.516Z,24.13
2018-01-27T04:41:23.980Z,27.00
2018-01-27T04:43:51.434Z,26.50
2018-01-27T04:46:20.408Z,24.40
2018-01-27T04:48:47.858Z,28.27
2018-01-27T04:51:15.320Z,26.00
2018-01-27T04:53:42.769Z,27.90
2018-01-27T04:56:10.230Z,26.83
2018-01-27T04:58:37.686Z,27.23
2018-01-27T05:01:05.145Z,25.13
2018-01-27T05:03:32.608Z,24.80
2018-01-27T05:06:00.064Z,24.50
2018-01-27T05:08:27.522Z,22.80
2018-01-27T05:10:54.985Z,22.27
2018-01-27T05:13:23.205Z,21.83
2018-01-27T05:15:51.432Z,19.20
2018-01-27T05:18:18.893Z,19.70
2018-01-27T05:20:46.350Z,20.27
2018-01-27T05:23:13.801Z,20.67
2018-01-27T05:25:41.262Z,18.03
2018-01-27T05:28:08.721Z,18.20
2018-01-27T05:30:36.173Z,20.80
2018-01-27T05:33:04.449Z,21.23
2018-01-27T05:35:31.897Z,20.20
2018-01-27T05:37:59.363Z,21.60
2018-01-27T05:40:26.808Z,22.00
2018-01-27T05:42:54.273Z,22.80
2018-01-27T05:45:21.726Z,25.00
2018-01-27T05:47:49.186Z,25.30
2018-01-27T05:50:16.647Z,23.93
2018-01-27T05:52:44.101Z,22.13
2018-01-27T05:55:11.552Z,24.10
2018-01-27T05:57:39.013Z,24.97
2018-01-27T06:00:06.465Z,24.57
2018-01-27T06:02:33.926Z,25.93
2018-01-27T06:05:01.380Z,26.60
2018-01-27T06:07:28.848Z,26.73
2018-01-27T06:09:56.301Z,24.77
2018-01-27T06:12:23.752Z,27.87
2018-01-27T06:14:51.221Z,28.10
2018-01-27T06:17:18.677Z,28.77
2018-01-27T06:19:46.137Z,27.10
2018-01-27T06:22:13.590Z,27.77
2018-01-27T06:24:41.049Z,30.30
2018-01-27T06:27:08.504Z,31.37
2018-01-27T06:29:35.974Z,27.70
2018-01-27T06:32:03.420Z,26.43
2018-01-27T06:34:30.876Z,26.67
2018-01-27T06:36:58.326Z,28.20
2018-01-27T06:39:25.780Z,27.90
2018-01-27T06:41:53.240Z,29.10
2018-01-27T06:44:20.697Z,28.10
2018-01-27T06:46:48.150Z,29.50
2018-01-27T06:49:15.605Z,30.10
2018-01-27T06:51:43.061Z,28.50
2018-01-27T06:54:10.521Z,28.93
2018-01-27T06:56:37.969Z,28.00
2018-01-27T06:59:05.430Z,27.80
2018-01-27T07:01:32.876Z,29.73
2018-01-27T07:04:00.337Z,30.80
2018-01-27T07:06:27.785Z,30.67
2018-01-27T07:08:55.241Z,30.40
2018-01-27T07:11:22.693Z,30.97
2018-01-27T07:13:50.158Z,30.03
2018-01-27T07:16:18.381Z,29.40
2018-01-27T07:18:46.616Z,27.80
2018-01-27T07:21:14.061Z,29.87
2018-01-27T07:23:41.512Z,30.50
2018-01-27T07:26:08.979Z,29.93
2018-01-27T07:28:36.429Z,30.77
2018-01-27T07:31:03.897Z,30.70
2018-01-27T07:33:31.348Z,28.20
2018-01-27T07:35:58.808Z,27.90
2018-01-27T07:38:26.267Z,28.87
2018-01-27T07:40:53.717Z,31.00
2018-01-27T07:43:21.165Z,29.77
2018-01-27T07:45:48.626Z,29.00
2018-01-27T07:48:16.081Z,31.33
2018-01-27T07:50:43.537Z,30.53
2018-01-27T07:53:11.750Z,32.70
2018-01-27T07:55:39.213Z,32.50
2018-01-27T07:58:07.429Z,29.07
2018-01-27T08:00:34.889Z,30.53
2018-01-27T08:03:02.347Z,29.40
2018-01-27T08:05:29.804Z,29.37
2018-01-27T08:07:57.256Z,28.60
2018-01-27T08:10:24.723Z,27.73
2018-01-27T08:12:52.173Z,29.17
2018-01-27T08:15:19.632Z,27.17
2018-01-27T08:17:47.092Z,27.70
2018-01-27T08:20:14.544Z,28.80
2018-01-27T08:22:41.997Z,29.37
2018-01-27T08:25:09.458Z,28.73
2018-01-27T08:27:36.915Z,31.27
2018-01-27T08:30:04.369Z,28.17
2018-01-27T08:32:31.837Z,24.47
2018-01-27T08:34:59.295Z,27.60
2018-01-27T08:37:26.754Z,27.10
2018-01-27T08:39:54.208Z,27.07
2018-01-27T08:42:21.669Z,28.60
2018-01-27T08:44:49.120Z,30.40
2018-01-27T08:47:16.580Z,31.27
2018-01-27T08:49:44.032Z,31.60
2018-01-27T08:52:11.493Z,30.13
2018-01-27T08:54:38.945Z,31.73
2018-01-27T08:57:06.418Z,29.37
2018-01-27T08:59:33.877Z,30.70
2018-01-27T09:02:01.328Z,30.90
2018-01-27T09:04:28.784Z,33.23
2018-01-27T09:06:56.235Z,32.17
2018-01-27T09:09:23.694Z,32.77
2018-01-27T09:11:51.160Z,32.13
2018-01-27T09:14:18.617Z,35.37
2018-01-27T09:16:46.081Z,28.83
2018-01-27T09:19:13.539Z,27.70
2018-01-27T09:21:40.998Z,29.57
2018-01-27T09:24:08.459Z,30.37
2018-01-27T09:26:35.918Z,26.80
2018-01-27T09:29:03.369Z,25.70
2018-01-27T09:31:30.824Z,25.40
2018-01-27T09:33:58.280Z,25.73
2018-01-27T09:36:25.737Z,25.63
2018-01-27T09:38:53.208Z,27.37
2018-01-27T09:41:21.422Z,25.73
2018-01-27T09:43:48.889Z,28.20
2018-01-27T09:46:16.341Z,23.40
2018-01-27T09:48:43.800Z,26.63
2018-01-27T09:51:11.261Z,26.50
2018-01-27T09:53:38.725Z,26.70
2018-01-27T09:56:06.173Z,26.87
2018-01-27T09:58:33.638Z,27.80
2018-01-27T10:01:01.099Z,28.20
2018-01-27T10:03:28.558Z,25.00
2018-01-27T10:05:56.021Z,26.63
2018-01-27T10:08:23.480Z,27.10
2018-01-27T10:10:50.942Z,25.07
2018-01-27T10:13:18.397Z,23.77
2018-01-27T10:15:45.850Z,23.77
2018-01-27T10:18:13.313Z,25.80
2018-01-27T10:20:40.762Z,23.50
2018-01-27T10:23:08.224Z,26.63
2018-01-27T10:25:35.678Z,26.30
2018-01-27T10:28:03.145Z,25.93
2018-01-27T10:30:30.601Z,25.90
2018-01-27T10:32:58.065Z,24.63
2018-01-27T10:35:26.289Z,25.07
2018-01-27T10:37:53.786Z,25.20
2018-01-27T10:40:21.241Z,24.57
2018-01-27T10:42:48.709Z,24.80
2018-01-27T10:45:16.165Z,25.67
2018-01-27T10:47:43.625Z,26.10
2018-01-27T10:50:11.874Z,23.60
2018-01-27T10:52:40.565Z,22.07
2018-01-27T10:55:08.041Z,22.67
2018-01-27T10:57:35.493Z,23.80
2018-01-27T11:00:03.004Z,22.57
2018-01-27T11:02:35.295Z,21.60
2018-01-27T11:05:02.762Z,21.10
2018-01-27T11:07:30.396Z,18.40
2018-01-27T11:09:57.873Z,19.73
2018-01-27T11:12:25.325Z,20.97
2018-01-27T11:14:52.785Z,21.17
2018-01-27T11:17:20.250Z,20.10
2018-01-27T11:19:47.720Z,19.47
2018-01-27T11:22:18.806Z,19.60
2018-01-27T11:24:46.260Z,18.30
2018-01-27T11:27:13.723Z,20.00
2018-01-27T11:29:41.173Z,19.60
2018-01-27T11:32:08.621Z,22.67
2018-01-27T11:34:36.080Z,20.07
2018-01-27T11:37:03.541Z,19.97
2018-01-27T11:39:31.014Z,22.10
2018-01-27T11:41:58.464Z,22.47
2018-01-27T11:44:25.933Z,22.50
2018-01-27T11:46:53.400Z,18.93
2018-01-27T11:49:20.874Z,21.90
2018-01-27T11:51:48.321Z,22.50
2018-01-27T11:54:15.785Z,22.07
2018-01-27T11:56:43.238Z,22.20
2018-01-27T11:59:10.709Z,21.17
2018-01-27T12:01:38.165Z,21.53
2018-01-27T12:04:05.625Z,19.80
2018-01-27T12:06:33.085Z,19.90
2018-01-27T12:09:00.546Z,20.07
2018-01-27T12:11:28.773Z,16.60
2018-01-27T12:13:56.232Z,16.87
2018-01-27T12:16:23.702Z,18.07
2018-01-27T12:18:51.157Z,19.43
2018-01-27T12:21:18.613Z,20.57
2018-01-27T12:23:46.067Z,18.13
2018-01-27T12:26:13.528Z,19.13
2018-01-27T12:28:40.977Z,20.07
2018-01-27T12:31:08.436Z,19.20
2018-01-27T12:33:35.898Z,18.60
2018-01-27T12:36:03.370Z,19.83
2018-01-27T12:38:30.830Z,18.50
2018-01-27T12:40:58.293Z,17.83
2018-01-27T12:43:25.875Z,19.60
2018-01-27T12:45:54.194Z,17.70
2018-01-27T12:48:21.691Z,22.20
2018-01-27T12:50:49.188Z,22.80
2018-01-27T12:53:16.625Z,24.97
2018-01-27T12:55:44.856Z,23.90
2018-01-27T12:58:12.311Z,24.00
2018-01-27T13:00:39.819Z,24.30
2018-01-27T13:03:08.024Z,22.53
2018-01-27T13:05:35.502Z,24.10
2018-01-27T13:08:02.963Z,20.80
2018-01-27T13:10:36.628Z,23.13
2018-01-27T13:13:04.094Z,23.70
2018-01-27T13:15:31.609Z,21.93
2018-01-27T13:17:59.058Z,23.00
2018-01-27T13:20:26.509Z,21.70
2018-01-27T13:22:53.970Z,23.53
2018-01-27T13:25:22.198Z,24.70
2018-01-27T13:27:49.669Z,24.40
2018-01-27T13:30:17.169Z,24.07
2018-01-27T13:32:44.626Z,22.30
2018-01-27T13:35:12.845Z,22.20
2018-01-27T13:37:40.317Z,22.67
2018-01-27T13:40:07.830Z,23.87
2018-01-27T13:42:36.094Z,22.30
2018-01-27T13:45:04.305Z,22.47
2018-01-27T13:47:31.773Z,22.43
2018-01-27T13:49:59.239Z,22.60
2018-01-27T13:52:26.738Z,21.00
2018-01-27T13:54:54.954Z,20.13
2018-01-27T13:57:22.460Z,22.63
2018-01-27T13:59:49.905Z,22.50
2018-01-27T14:02:17.409Z,21.70
2018-01-27T14:04:44.891Z,19.50
2018-01-27T14:07:12.345Z,19.40
2018-01-27T14:09:39.806Z,22.10
2018-01-27T14:12:07.303Z,21.10
2018-01-27T14:14:34.793Z,19.87
2018-01-27T14:17:03.565Z,19.87
2018-01-27T14:19:31.032Z,18.57
2018-01-27T14:21:58.515Z,19.17
2018-01-27T14:24:25.973Z,21.10
2018-01-27T14:26:53.459Z,19.90
2018-01-27T14:29:20.900Z,18.70
2018-01-27T14:31:48.381Z,18.83
2018-01-27T14:34:15.839Z,18.67
2018-01-27T14:36:46.292Z,20.70
2018-01-27T14:39:14.097Z,22.60
2018-01-27T14:41:41.553Z,22.67
2018-01-27T14:44:09.023Z,24.47
2018-01-27T14:46:36.478Z,23.53
2018-01-27T14:49:03.936Z,22.57
2018-01-27T14:51:31.385Z,24.00
2018-01-27T14:53:58.846Z,23.07
2018-01-27T14:56:26.301Z,23.33
2018-01-27T14:58:53.771Z,25.23
2018-01-27T15:01:21.264Z,23.80
2018-01-27T15:03:49.497Z,23.37
2018-01-27T15:06:16.953Z,22.27
2018-01-27T15:08:44.408Z,22.80
2018-01-27T15:11:11.865Z,23.30
2018-01-27T15:13:39.325Z,23.90
2018-01-27T15:16:06.785Z,22.87
2018-01-27T15:18:34.254Z,25.50
2018-01-27T15:21:01.769Z,22.97
2018-01-27T15:23:29.233Z,23.00
2018-01-27T15:25:56.690Z,25.63
2018-01-27T15:28:24.153Z,22.70
2018-01-27T15:30:51.664Z,24.47
2018-01-27T15:33:19.878Z,24.93
2018-01-27T15:35:47.376Z,25.60
2018-01-27T15:38:14.832Z,23.63
2018-01-27T15:40:43.053Z,23.37
2018-01-27T15:43:10.517Z,25.23
2018-01-27T15:45:37.965Z,24.00
2018-01-27T15:48:05.440Z,24.83
2018-01-27T15:50:32.900Z,24.73
2018-01-27T15:53:00.365Z,23.10
2018-01-27T15:55:27.817Z,23.70
2018-01-27T15:57:55.312Z,25.83
2018-01-27T16:00:23.580Z,27.37
2018-01-27T16:02:51.026Z,24.20
2018-01-27T16:05:18.549Z,24.73
2018-01-27T16:07:45.993Z,23.93
2018-01-27T16:10:13.457Z,25.20
2018-01-27T16:12:40.965Z,25.93
2018-01-27T16:15:08.474Z,25.17
2018-01-27T16:17:35.972Z,22.20
2018-01-27T16:20:03.418Z,23.80
2018-01-27T16:22:30.865Z,23.33
2018-01-27T16:24:58.326Z,23.47
2018-01-27T16:27:25.776Z,25.20
2018-01-27T16:29:53.245Z,23.63
2018-01-27T16:32:20.700Z,24.60
2018-01-27T16:34:48.211Z,23.60
2018-01-27T16:37:15.657Z,25.43
2018-01-27T16:39:43.121Z,24.17
2018-01-27T16:42:10.576Z,23.63
2018-01-27T16:44:38.049Z,22.50
2018-01-27T16:47:05.513Z,24.13
2018-01-27T16:49:33.014Z,25.40
2018-01-27T16:52:00.519Z,24.20
2018-01-27T16:54:27.980Z,24.80
2018-01-27T16:56:55.429Z,23.53
2018-01-27T16:59:22.907Z,26.53
2018-01-27T17:01:50.361Z,24.30
2018-01-27T17:04:17.814Z,24.00
2018-01-27T17:06:45.288Z,27.03
2018-01-27T17:09:12.738Z,24.83
2018-01-27T17:11:40.259Z,24.43
2018-01-27T17:14:08.469Z,24.77
2018-01-27T17:16:35.934Z,26.33
2018-01-27T17:19:03.500Z,25.87
2018-01-27T17:21:31.007Z,23.37
2018-01-27T17:23:58.444Z,23.70
2018-01-27T17:26:26.745Z,24.77
2018-01-27T17:28:54.187Z,26.07
2018-01-27T17:31:21.683Z,24.43
2018-01-27T17:33:49.133Z,24.57
2018-01-27T17:36:16.596Z,23.60
2018-01-27T17:38:44.044Z,24.07
2018-01-27T17:41:11.525Z,25.87
2018-01-27T17:43:38.984Z,24.37
2018-01-27T17:46:06.450Z,24.83
2018-01-27T17:48:33.902Z,24.13
2018-01-27T17:51:01.371Z,24.30
2018-01-27T17:53:28.832Z,26.27
2018-01-27T17:55:56.337Z,25.87
2018-01-27T17:58:23.793Z,24.80
2018-01-27T18:00:51.309Z,23.47
2018-01-27T18:03:18.825Z,26.30
2018-01-27T18:05:47.060Z,26.40
2018-01-27T18:08:14.524Z,24.33
2018-01-27T18:10:41.985Z,27.23
2018-01-27T18:13:09.502Z,29.27
2018-01-27T18:15:36.941Z,27.93
2018-01-27T18:18:04.444Z,28.13
2018-01-27T18:20:32.659Z,26.93
2018-01-27T18:23:00.164Z,24.07
2018-01-27T18:25:28.424Z,25.67
2018-01-27T18:27:55.905Z,25.27
2018-01-27T18:30:24.177Z,25.90
2018-01-27T18:32:51.705Z,27.27
2018-01-27T18:35:19.157Z,25.90
2018-01-27T18:37:46.625Z,27.57
2018-01-27T18:40:14.175Z,26.03
2018-01-27T18:42:41.622Z,26.37
2018-01-27T18:45:09.064Z,27.57
2018-01-27T18:47:36.539Z,28.33
2018-01-27T18:50:04.036Z,30.63
2018-01-27T18:52:32.318Z,32.77
2018-01-27T18:55:00.576Z,28.77
2018-01-27T18:57:28.021Z,29.57
2018-01-27T18:59:55.481Z,31.63
2018-01-27T19:02:22.995Z,29.97
2018-01-27T19:04:50.440Z,29.23
2018-01-27T19:07:17.953Z,30.13
2018-01-27T19:09:45.451Z,31.33
2018-01-27T19:12:12.964Z,29.70
2018-01-27T19:14:40.455Z,27.53
2018-01-27T19:17:07.922Z,28.47
2018-01-27T19:19:35.429Z,26.80
2018-01-27T19:22:02.956Z,28.30
2018-01-27T19:24:30.465Z,33.97
2018-01-27T19:26:57.968Z,33.27
2018-01-27T19:29:26.080Z,30.90
2018-01-27T19:31:53.544Z,31.03
2018-01-27T19:34:21.000Z,34.43
2018-01-27T19:36:48.532Z,34.10
2018-01-27T19:39:15.989Z,34.97
2018-01-27T19:41:43.496Z,29.67
2018-01-27T19:44:11.767Z,28.30
2018-01-27T19:46:40.033Z,30.50
2018-01-27T19:49:07.545Z,29.70
2018-01-27T19:51:34.989Z,29.17
2018-01-27T19:54:02.506Z,29.90
2018-01-27T19:56:30.721Z,29.80
2018-01-27T19:58:58.274Z,27.63
2018-01-27T20:01:26.503Z,30.90
2018-01-27T20:03:54.000Z,33.70
2018-01-27T20:06:21.502Z,31.43
2018-01-27T20:08:49.004Z,29.57
2018-01-27T20:11:17.265Z,29.20
2018-01-27T20:13:45.537Z,30.73
2018-01-27T20:16:12.988Z,32.77
2018-01-27T20:18:40.499Z,33.23
2018-01-27T20:21:07.944Z,32.77
2018-01-27T20:23:35.451Z,33.10
2018-01-27T20:26:02.952Z,25.43
2018-01-27T20:28:30.402Z,26.47
2018-01-27T20:30:57.918Z,28.10
2018-01-27T20:33:25.463Z,26.30
2018-01-27T20:35:52.949Z,26.23
2018-01-27T20:38:20.428Z,26.97
2018-01-27T20:40:48.700Z,28.33
2018-01-27T20:43:16.258Z,25.70
2018-01-27T20:45:44.557Z,26.87
2018-01-27T20:48:12.081Z,27.10
2018-01-27T20:50:40.349Z,25.27
2018-01-27T20:53:08.629Z,25.60
2018-01-27T20:55:36.141Z,27.30
2018-01-27T20:58:03.640Z,26.07
2018-01-27T21:00:31.150Z,29.07
2018-01-27T21:02:58.604Z,29.03
2018-01-27T21:05:26.112Z,30.67
2018-01-27T21:07:53.600Z,30.87
2018-01-27T21:10:21.103Z,30.77
2018-01-27T21:12:48.596Z,35.93
2018-01-27T21:15:16.872Z,29.50
2018-01-27T21:17:45.132Z,34.37
2018-01-27T21:20:12.628Z,29.67
2018-01-27T21:22:40.132Z,26.83
2018-01-27T21:25:07.628Z,29.70
2018-01-27T21:27:35.073Z,27.83
2018-01-27T21:30:03.306Z,28.00
2018-01-27T21:32:30.843Z,28.20
2018-01-27T21:34:58.352Z,29.40
2018-01-27T21:37:26.638Z,26.37
2018-01-27T21:39:54.165Z,28.90
2018-01-27T21:42:21.613Z,28.00
2018-01-27T21:44:49.124Z,25.73
2018-01-27T21:47:17.384Z,27.90
2018-01-27T21:49:44.826Z,29.80
2018-01-27T21:52:12.443Z,28.93
2018-01-27T21:54:39.927Z,27.50
2018-01-27T21:57:07.376Z,28.13
2018-01-27T21:59:34.880Z,30.93
2018-01-27T22:02:03.110Z,32.67
2018-01-27T22:04:30.636Z,30.63
2018-01-27T22:06:58.139Z,28.83
2018-01-27T22:09:25.632Z,30.00
2018-01-27T22:11:53.146Z,29.30
2018-01-27T22:14:20.645Z,29.03
2018-01-27T22:16:48.918Z,31.90
2018-01-27T22:19:17.175Z,32.90
2018-01-27T22:21:44.622Z,27.40
2018-01-27T22:24:12.082Z,30.73
2018-01-27T22:26:39.584Z,29.60
2018-01-27T22:29:07.072Z,31.13
2018-01-27T22:31:34.567Z,30.80
2018-01-27T22:34:02.028Z,31.40
2018-01-27T22:36:29.481Z,33.60
2018-01-27T22:38:56.976Z,32.77
2018-01-27T22:41:24.471Z,33.67
2018-01-27T22:43:51.969Z,34.90
2018-01-27T22:46:20.233Z,34.70
2018-01-27T22:48:47.678Z,35.50
2018-01-27T22:51:15.186Z,35.30
2018-01-27T22:53:42.684Z,36.27
2018-01-27T22:56:10.179Z,40.33
2018-01-27T22:58:38.479Z,36.57
2018-01-27T23:01:11.668Z,37.37
2018-01-27T23:03:39.126Z,34.77
2018-01-27T23:06:06.624Z,35.70
2018-01-27T23:08:34.123Z,34.70
2018-01-27T23:11:02.335Z,35.97
2018-01-27T23:13:29.852Z,32.77
2018-01-27T23:15:58.105Z,30.50
2018-01-27T23:18:25.596Z,31.03
2018-01-27T23:20:53.092Z,29.07
2018-01-27T23:23:20.592Z,31.20
2018-01-27T23:25:48.801Z,31.90
2018-01-27T23:28:16.260Z,32.23
2018-01-27T23:30:43.764Z,33.30
2018-01-27T23:33:11.218Z,31.80
2018-01-27T23:35:38.722Z,30.30
2018-01-27T23:38:06.170Z,31.43
2018-01-27T23:40:33.622Z,31.60
2018-01-27T23:43:01.073Z,30.57
2018-01-27T23:45:28.567Z,32.20
2018-01-27T23:47:56.054Z,28.00
2018-01-27T23:50:23.545Z,25.97
2018-01-27T23:52:51.764Z,25.07
2018-01-27T23:55:19.221Z,23.97
2018-01-27T23:57:46.719Z,25.60
